Schnellsuche:     vonnach     am:               Ankunft heute   Abflug heute   
Wetterdaten des Sylter Flughafens. Alle Angaben sind ohne Gewähr.



Datum: 2019-02-17 02:10 UTC
   
Windrichtung: 220°
Windgeschwindigkeit: 6 - 11 Kt.
QNH: 1021 hPa
Temperatur: 5 °C
Taupunkt: 5 °C
rel. Luftfeuchte: 98 %

METAR EDXW 161420Z 24013KT 6000 NSC 07/05 Q1021 RMK ATIS LIM=

Wolkenhöhen in den letzten 48 Stunden:






 

Im Jettempo nach Sylt!



Rhein-Neckar-Air

Mannheim und Kassel
Die Rhein-Neckar-Air fliegt vom 05. April bis zum 25. Oktober 2019 nach Mannheim und vom 08. Juni bis zum 31. August 2019 nach Kassel. Zur Seite der Rhein-Neckar-Air: www.flyrna.com

Lufthansa

Zürich, München und Frankfurt/Main
Die Lufthansa fliegt vom 31. März bis zum 04. Januar 2020 nach Zürich, vom 12. April bis zum 26. Oktober 2019 nach München und vom 13. April bis zum 13. Oktober 2019 nach Frankfurt/Main. Zur Seite der Lufthansa: www.lufthansa.de

Syltair

Hamburg
Die Syltair fliegt vom 19. April bis zum 06. Oktober 2019 nach Hamburg. Zur Seite der Syltair: www.syltair.de